createdAt,value
2023-02-04T00:18:05.791Z,12.10
2023-02-04T00:20:34.105Z,13.30
2023-02-04T00:23:02.445Z,13.30
2023-02-04T00:25:30.781Z,13.00
2023-02-04T00:27:59.164Z,12.90
2023-02-04T00:30:29.858Z,13.20
2023-02-04T00:32:58.287Z,12.90
2023-02-04T00:35:26.871Z,12.90
2023-02-04T00:37:55.268Z,13.10
2023-02-04T00:40:23.713Z,13.10
2023-02-04T00:42:52.029Z,13.20
2023-02-04T00:45:20.504Z,13.30
2023-02-04T00:47:50.201Z,13.30
2023-02-04T00:50:19.083Z,13.30
2023-02-04T00:52:47.428Z,13.40
2023-02-04T00:55:18.174Z,13.40
2023-02-04T00:57:48.093Z,13.20
2023-02-04T01:00:17.556Z,12.70
2023-02-04T01:02:45.979Z,12.80
2023-02-04T01:05:15.668Z,13.00
2023-02-04T09:33:00.819Z,13.00
2023-02-04T09:35:29.353Z,13.80
2023-02-04T09:37:57.659Z,13.80
2023-02-04T09:40:32.274Z,13.80
2023-02-04T09:43:00.944Z,13.80
2023-02-04T09:45:33.817Z,13.80
2023-02-04T09:48:07.531Z,13.60
2023-02-04T09:50:36.994Z,13.80
2023-02-04T09:53:08.826Z,13.70
2023-02-04T09:55:42.357Z,13.70
2023-02-04T09:58:17.390Z,13.60
2023-02-04T10:00:47.486Z,13.60
2023-02-04T11:27:09.117Z,13.80
2023-02-04T11:29:39.313Z,14.20
2023-02-04T11:32:27.728Z,14.00
2023-02-04T11:35:25.031Z,14.10
2023-02-04T11:37:55.780Z,14.20
2023-02-04T11:40:33.550Z,13.70
2023-02-04T11:43:10.472Z,13.80
2023-02-04T11:45:39.945Z,14.00
2023-02-04T12:26:14.652Z,13.50
2023-02-04T12:28:42.949Z,14.10
2023-02-04T12:31:11.383Z,13.90
2023-02-04T12:33:39.803Z,14.00
2023-02-04T12:36:09.230Z,13.30
2023-02-04T12:38:38.929Z,13.60
2023-02-04T12:41:07.218Z,13.70
2023-02-04T14:20:25.107Z,13.30
